sensor_id;sensor_type;location;lat;lon;timestamp;pressure;altitude;pressure_sealevel;temperature;humidity
64404;BME280;50726;54.912;-8.392;2022-12-29T00:02:01;97659.19;;;22.96;64.06
64404;BME280;50726;54.912;-8.392;2022-12-29T00:04:27;97650.63;;;23.38;62.19
64404;BME280;50726;54.912;-8.392;2022-12-29T00:06:53;97668.13;;;23.69;63.66
64404;BME280;50726;54.912;-8.392;2022-12-29T00:09:19;97664.47;;;22.74;63.93
64404;BME280;50726;54.912;-8.392;2022-12-29T00:11:47;97647.47;;;23.49;62.96
64404;BME280;50726;54.912;-8.392;2022-12-29T00:14:13;97697.69;;;23.30;62.48
64404;BME280;50726;54.912;-8.392;2022-12-29T00:16:57;97687.56;;;24.42;61.03
64404;BME280;50726;54.912;-8.392;2022-12-29T00:19:23;97684.22;;;24.26;60.13
64404;BME280;50726;54.912;-8.392;2022-12-29T00:22:14;97687.44;;;24.21;60.56
64404;BME280;50726;54.912;-8.392;2022-12-29T00:24:59;97670.88;;;24.04;61.87
64404;BME280;50726;54.912;-8.392;2022-12-29T00:27:43;97674.22;;;24.42;61.05
64404;BME280;50726;54.912;-8.392;2022-12-29T00:30:27;97667.84;;;24.07;61.48
64404;BME280;50726;54.912;-8.392;2022-12-29T00:33:17;97665.28;;;24.21;58.63
64404;BME280;50726;54.912;-8.392;2022-12-29T00:38:31;97671.22;;;24.58;58.77
64404;BME280;50726;54.912;-8.392;2022-12-29T00:41:16;97673.47;;;23.69;60.37
64404;BME280;50726;54.912;-8.392;2022-12-29T00:44:01;97667.38;;;23.53;61.34
64404;BME280;50726;54.912;-8.392;2022-12-29T00:46:31;97695.94;;;24.32;59.90
64404;BME280;50726;54.912;-8.392;2022-12-29T00:48:57;97681.97;;;23.36;61.95
64404;BME280;50726;54.912;-8.392;2022-12-29T00:51:41;97725.53;;;23.43;61.88
64404;BME280;50726;54.912;-8.392;2022-12-29T00:54:08;97702.94;;;23.82;60.78
64404;BME280;50726;54.912;-8.392;2022-12-29T00:56:36;97692.94;;;23.91;59.19
64404;BME280;50726;54.912;-8.392;2022-12-29T00:59:03;97698.25;;;25.26;58.59
64404;BME280;50726;54.912;-8.392;2022-12-29T01:01:30;97703.84;;;24.47;59.32
64404;BME280;50726;54.912;-8.392;2022-12-29T01:06:21;97688.44;;;24.49;58.96
64404;BME280;50726;54.912;-8.392;2022-12-29T01:08:47;97710.50;;;24.00;58.69
64404;BME280;50726;54.912;-8.392;2022-12-29T01:11:32;97709.63;;;24.50;57.09
64404;BME280;50726;54.912;-8.392;2022-12-29T01:13:58;97703.34;;;23.79;57.82
64404;BME280;50726;54.912;-8.392;2022-12-29T01:16:27;97698.97;;;24.00;57.70
64404;BME280;50726;54.912;-8.392;2022-12-29T01:18:53;97704.91;;;23.52;58.24
64404;BME280;50726;54.912;-8.392;2022-12-29T01:21:18;97699.53;;;24.46;57.24
64404;BME280;50726;54.912;-8.392;2022-12-29T01:23:44;97705.91;;;24.45;58.10
64404;BME280;50726;54.912;-8.392;2022-12-29T01:26:15;97702.91;;;26.33;55.39
64404;BME280;50726;54.912;-8.392;2022-12-29T01:28:44;97690.13;;;24.57;58.56
64404;BME280;50726;54.912;-8.392;2022-12-29T01:31:12;97720.81;;;25.79;56.80
64404;BME280;50726;54.912;-8.392;2022-12-29T01:33:38;97708.38;;;24.18;56.69
64404;BME280;50726;54.912;-8.392;2022-12-29T01:36:07;97726.63;;;24.43;57.03
64404;BME280;50726;54.912;-8.392;2022-12-29T01:38:34;97712.16;;;24.30;56.41
64404;BME280;50726;54.912;-8.392;2022-12-29T01:41:01;97705.72;;;24.53;57.00
64404;BME280;50726;54.912;-8.392;2022-12-29T01:43:43;97712.69;;;25.38;56.16
64404;BME280;50726;54.912;-8.392;2022-12-29T01:46:37;97720.88;;;25.16;58.10
64404;BME280;50726;54.912;-8.392;2022-12-29T01:49:26;97723.75;;;25.28;57.55
64404;BME280;50726;54.912;-8.392;2022-12-29T01:59:17;97737.56;;;23.97;55.90
64404;BME280;50726;54.912;-8.392;2022-12-29T02:02:02;97729.13;;;22.68;59.55
64404;BME280;50726;54.912;-8.392;2022-12-29T02:04:32;97735.00;;;23.30;61.18
64404;BME280;50726;54.912;-8.392;2022-12-29T02:07:05;97757.94;;;24.05;59.27
64404;BME280;50726;54.912;-8.392;2022-12-29T02:09:33;97745.94;;;22.84;61.56
64404;BME280;50726;54.912;-8.392;2022-12-29T02:11:59;97767.88;;;23.68;59.83
64404;BME280;50726;54.912;-8.392;2022-12-29T02:14:26;97757.06;;;23.98;58.93
64404;BME280;50726;54.912;-8.392;2022-12-29T02:17:16;97773.69;;;25.14;56.82
64404;BME280;50726;54.912;-8.392;2022-12-29T02:31:19;97817.06;;;24.02;58.57
64404;BME280;50726;54.912;-8.392;2022-12-29T02:37:23;97791.53;;;24.72;58.15
64404;BME280;50726;54.912;-8.392;2022-12-29T02:40:08;97786.53;;;24.84;57.93
64404;BME280;50726;54.912;-8.392;2022-12-29T02:45:20;97779.03;;;23.78;60.72
64404;BME280;50726;54.912;-8.392;2022-12-29T02:48:17;97784.91;;;24.32;61.76
64404;BME280;50726;54.912;-8.392;2022-12-29T02:51:17;97785.59;;;23.97;61.73
64404;BME280;50726;54.912;-8.392;2022-12-29T02:53:44;97777.88;;;23.44;63.61
64404;BME280;50726;54.912;-8.392;2022-12-29T02:56:30;97782.41;;;23.13;65.48
64404;BME280;50726;54.912;-8.392;2022-12-29T02:58:56;97777.72;;;23.67;63.19
64404;BME280;50726;54.912;-8.392;2022-12-29T03:04:51;97820.38;;;24.48;58.04
64404;BME280;50726;54.912;-8.392;2022-12-29T03:18:41;97845.25;;;23.07;61.58
64404;BME280;50726;54.912;-8.392;2022-12-29T03:23:41;97836.84;;;23.71;59.71
64404;BME280;50726;54.912;-8.392;2022-12-29T03:26:10;97825.22;;;23.27;60.68
64404;BME280;50726;54.912;-8.392;2022-12-29T03:28:56;97837.28;;;23.07;60.05
64404;BME280;50726;54.912;-8.392;2022-12-29T03:31:23;97843.53;;;23.45;59.50
64404;BME280;50726;54.912;-8.392;2022-12-29T03:33:51;97847.75;;;23.24;59.43
64404;BME280;50726;54.912;-8.392;2022-12-29T03:36:43;97841.16;;;23.20;58.07
64404;BME280;50726;54.912;-8.392;2022-12-29T03:39:12;97833.16;;;22.13;60.37
64404;BME280;50726;54.912;-8.392;2022-12-29T03:41:41;97861.81;;;23.03;57.89
64404;BME280;50726;54.912;-8.392;2022-12-29T03:44:09;97815.13;;;23.07;58.01
64404;BME280;50726;54.912;-8.392;2022-12-29T03:46:37;97840.28;;;23.65;58.17
64404;BME280;50726;54.912;-8.392;2022-12-29T03:49:03;97845.03;;;23.69;57.95
64404;BME280;50726;54.912;-8.392;2022-12-29T03:51:31;97858.34;;;23.48;57.71
64404;BME280;50726;54.912;-8.392;2022-12-29T03:53:56;97855.06;;;22.62;56.37
64404;BME280;50726;54.912;-8.392;2022-12-29T03:56:22;97838.50;;;23.35;54.06
64404;BME280;50726;54.912;-8.392;2022-12-29T03:58:48;97850.41;;;23.09;53.21
64404;BME280;50726;54.912;-8.392;2022-12-29T04:01:14;97873.41;;;23.25;53.30
64404;BME280;50726;54.912;-8.392;2022-12-29T04:03:40;97855.69;;;23.02;52.82
64404;BME280;50726;54.912;-8.392;2022-12-29T04:06:06;97838.94;;;23.54;51.56
64404;BME280;50726;54.912;-8.392;2022-12-29T04:08:33;97855.38;;;22.82;52.36
64404;BME280;50726;54.912;-8.392;2022-12-29T04:10:58;97869.81;;;24.65;50.09
64404;BME280;50726;54.912;-8.392;2022-12-29T04:13:24;97870.13;;;23.38;51.50
64404;BME280;50726;54.912;-8.392;2022-12-29T04:15:50;97872.41;;;23.56;52.05
64404;BME280;50726;54.912;-8.392;2022-12-29T04:18:19;97872.34;;;23.86;53.52
64404;BME280;50726;54.912;-8.392;2022-12-29T04:20:45;97892.56;;;23.44;53.36
64404;BME280;50726;54.912;-8.392;2022-12-29T04:23:30;97869.25;;;21.84;57.18
64404;BME280;50726;54.912;-8.392;2022-12-29T04:25:57;97860.81;;;21.24;56.47
64404;BME280;50726;54.912;-8.392;2022-12-29T04:28:23;97870.88;;;21.45;55.51
64404;BME280;50726;54.912;-8.392;2022-12-29T04:30:48;97859.50;;;22.46;53.46
64404;BME280;50726;54.912;-8.392;2022-12-29T04:33:17;97873.78;;;22.53;52.48
64404;BME280;50726;54.912;-8.392;2022-12-29T04:35:43;97869.41;;;22.14;49.70
64404;BME280;50726;54.912;-8.392;2022-12-29T04:38:09;97877.41;;;22.06;50.31
64404;BME280;50726;54.912;-8.392;2022-12-29T04:40:37;97878.50;;;22.43;49.58
64404;BME280;50726;54.912;-8.392;2022-12-29T04:43:04;97888.03;;;21.42;49.36
64404;BME280;50726;54.912;-8.392;2022-12-29T04:45:29;97870.06;;;21.84;48.57
64404;BME280;50726;54.912;-8.392;2022-12-29T04:47:55;97909.41;;;22.76;48.66
64404;BME280;50726;54.912;-8.392;2022-12-29T04:50:21;97888.63;;;22.86;49.33
64404;BME280;50726;54.912;-8.392;2022-12-29T04:55:22;97885.06;;;21.37;53.00
64404;BME280;50726;54.912;-8.392;2022-12-29T04:57:47;97877.00;;;23.02;50.96
64404;BME280;50726;54.912;-8.392;2022-12-29T05:00:14;97898.78;;;22.91;51.06
64404;BME280;50726;54.912;-8.392;2022-12-29T05:02:40;97886.72;;;21.78;52.56
64404;BME280;50726;54.912;-8.392;2022-12-29T05:05:06;97895.41;;;22.04;52.76
64404;BME280;50726;54.912;-8.392;2022-12-29T05:07:32;97884.25;;;23.09;50.77
64404;BME280;50726;54.912;-8.392;2022-12-29T05:09:59;97880.75;;;23.08;51.39
64404;BME280;50726;54.912;-8.392;2022-12-29T05:12:25;97875.38;;;23.46;51.08
64404;BME280;50726;54.912;-8.392;2022-12-29T05:14:50;97875.81;;;23.20;50.91
64404;BME280;50726;54.912;-8.392;2022-12-29T05:17:16;97887.69;;;23.32;50.76
64404;BME280;50726;54.912;-8.392;2022-12-29T05:19:42;97870.94;;;23.09;50.95
64404;BME280;50726;54.912;-8.392;2022-12-29T05:22:08;97880.88;;;22.38;51.36
64404;BME280;50726;54.912;-8.392;2022-12-29T05:24:33;97860.44;;;22.92;50.56
64404;BME280;50726;54.912;-8.392;2022-12-29T05:27:02;97872.19;;;22.83;51.55
64404;BME280;50726;54.912;-8.392;2022-12-29T05:29:28;97877.00;;;23.17;52.56
64404;BME280;50726;54.912;-8.392;2022-12-29T05:31:54;97860.50;;;22.84;49.68
64404;BME280;50726;54.912;-8.392;2022-12-29T05:34:20;97889.56;;;21.68;48.54
64404;BME280;50726;54.912;-8.392;2022-12-29T05:36:45;97877.81;;;21.06;51.05
64404;BME280;50726;54.912;-8.392;2022-12-29T05:39:11;97888.09;;;21.17;49.27
64404;BME280;50726;54.912;-8.392;2022-12-29T05:41:37;97835.84;;;21.41;50.04
64404;BME280;50726;54.912;-8.392;2022-12-29T05:44:03;97885.84;;;22.64;46.42
64404;BME280;50726;54.912;-8.392;2022-12-29T05:46:29;97855.72;;;22.64;48.11
64404;BME280;50726;54.912;-8.392;2022-12-29T05:48:55;97849.53;;;22.02;50.43
64404;BME280;50726;54.912;-8.392;2022-12-29T05:51:20;97874.78;;;22.52;49.68
64404;BME280;50726;54.912;-8.392;2022-12-29T05:53:46;97870.28;;;21.75;51.74
64404;BME280;50726;54.912;-8.392;2022-12-29T06:01:12;97889.19;;;23.35;49.88
64404;BME280;50726;54.912;-8.392;2022-12-29T06:03:38;97845.00;;;23.48;49.58
64404;BME280;50726;54.912;-8.392;2022-12-29T06:06:04;97844.28;;;23.09;47.31
64404;BME280;50726;54.912;-8.392;2022-12-29T06:08:30;97894.50;;;23.50;47.08
64404;BME280;50726;54.912;-8.392;2022-12-29T06:10:56;97859.16;;;25.71;45.29
64404;BME280;50726;54.912;-8.392;2022-12-29T06:13:24;97855.22;;;24.61;48.50
64404;BME280;50726;54.912;-8.392;2022-12-29T06:15:50;97859.16;;;23.18;49.31
64404;BME280;50726;54.912;-8.392;2022-12-29T06:18:16;97843.16;;;24.44;48.80
64404;BME280;50726;54.912;-8.392;2022-12-29T06:20:42;97850.69;;;24.62;47.91
64404;BME280;50726;54.912;-8.392;2022-12-29T06:23:08;97823.84;;;24.70;47.39
64404;BME280;50726;54.912;-8.392;2022-12-29T06:25:34;97835.66;;;24.10;48.34
64404;BME280;50726;54.912;-8.392;2022-12-29T06:28:02;97796.66;;;23.72;47.62
64404;BME280;50726;54.912;-8.392;2022-12-29T06:30:28;97810.19;;;23.93;47.07
64404;BME280;50726;54.912;-8.392;2022-12-29T06:32:54;97811.56;;;24.54;45.95
64404;BME280;50726;54.912;-8.392;2022-12-29T06:40:21;97812.03;;;23.92;51.71
64404;BME280;50726;54.912;-8.392;2022-12-29T06:42:47;97833.06;;;22.98;53.07
64404;BME280;50726;54.912;-8.392;2022-12-29T06:45:13;97832.13;;;22.14;56.05
64404;BME280;50726;54.912;-8.392;2022-12-29T06:47:41;97824.88;;;21.36;63.14
64404;BME280;50726;54.912;-8.392;2022-12-29T06:50:08;97804.38;;;20.23;61.98
64404;BME280;50726;54.912;-8.392;2022-12-29T06:52:36;97781.81;;;22.43;58.19
64404;BME280;50726;54.912;-8.392;2022-12-29T06:55:02;97812.44;;;22.38;57.84
64404;BME280;50726;54.912;-8.392;2022-12-29T06:57:29;97778.06;;;23.27;56.60
64404;BME280;50726;54.912;-8.392;2022-12-29T06:59:55;97758.44;;;25.08;54.93
64404;BME280;50726;54.912;-8.392;2022-12-29T07:02:21;97763.19;;;25.06;54.23
64404;BME280;50726;54.912;-8.392;2022-12-29T07:04:53;97741.88;;;24.49;54.10
64404;BME280;50726;54.912;-8.392;2022-12-29T07:07:19;97757.22;;;21.79;89.99
64404;BME280;50726;54.912;-8.392;2022-12-29T07:09:46;97750.69;;;23.33;66.11
64404;BME280;50726;54.912;-8.392;2022-12-29T07:12:12;97757.75;;;23.26;63.22
64404;BME280;50726;54.912;-8.392;2022-12-29T07:14:40;97753.22;;;22.21;65.06
64404;BME280;50726;54.912;-8.392;2022-12-29T07:17:12;97765.13;;;22.64;66.01
64404;BME280;50726;54.912;-8.392;2022-12-29T07:19:41;97727.44;;;21.98;67.30
64404;BME280;50726;54.912;-8.392;2022-12-29T07:22:27;97751.59;;;22.50;65.25
64404;BME280;50726;54.912;-8.392;2022-12-29T07:24:53;97813.13;;;21.62;66.64
64404;BME280;50726;54.912;-8.392;2022-12-29T07:27:19;97770.19;;;22.59;64.09
64404;BME280;50726;54.912;-8.392;2022-12-29T07:29:47;97813.50;;;22.14;64.73
64404;BME280;50726;54.912;-8.392;2022-12-29T07:34:40;97724.78;;;21.20;66.74
64404;BME280;50726;54.912;-8.392;2022-12-29T07:37:07;97754.00;;;22.22;64.97
64404;BME280;50726;54.912;-8.392;2022-12-29T07:39:33;97786.78;;;22.46;63.24
64404;BME280;50726;54.912;-8.392;2022-12-29T07:41:59;97790.69;;;22.88;61.78
64404;BME280;50726;54.912;-8.392;2022-12-29T07:44:28;97779.44;;;22.24;65.73
64404;BME280;50726;54.912;-8.392;2022-12-29T07:46:53;97749.44;;;22.69;65.35
64404;BME280;50726;54.912;-8.392;2022-12-29T07:57:05;97755.72;;;23.43;59.00
64404;BME280;50726;54.912;-8.392;2022-12-29T07:59:31;97771.38;;;23.31;59.97
64404;BME280;50726;54.912;-8.392;2022-12-29T08:01:57;97751.03;;;22.40;61.27
64404;BME280;50726;54.912;-8.392;2022-12-29T08:04:26;97795.81;;;22.21;60.12
64404;BME280;50726;54.912;-8.392;2022-12-29T08:06:55;97768.88;;;21.78;61.91
64404;BME280;50726;54.912;-8.392;2022-12-29T08:09:22;97771.13;;;22.81;59.69
64404;BME280;50726;54.912;-8.392;2022-12-29T08:11:48;97771.59;;;22.46;62.85
64404;BME280;50726;54.912;-8.392;2022-12-29T08:14:16;97726.94;;;22.72;62.49
64404;BME280;50726;54.912;-8.392;2022-12-29T08:16:52;97762.31;;;22.42;63.64
64404;BME280;50726;54.912;-8.392;2022-12-29T08:19:26;97778.53;;;21.07;68.84
64404;BME280;50726;54.912;-8.392;2022-12-29T08:21:52;97789.50;;;21.67;67.04
64404;BME280;50726;54.912;-8.392;2022-12-29T08:24:18;97783.75;;;20.59;66.54
64404;BME280;50726;54.912;-8.392;2022-12-29T08:39:40;97788.22;;;20.66;62.76
64404;BME280;50726;54.912;-8.392;2022-12-29T08:42:05;97853.44;;;20.77;64.35
64404;BME280;50726;54.912;-8.392;2022-12-29T08:44:31;97838.63;;;21.08;65.06
64404;BME280;50726;54.912;-8.392;2022-12-29T08:46:57;97890.97;;;20.74;65.80
64404;BME280;50726;54.912;-8.392;2022-12-29T08:49:23;97850.63;;;19.96;67.90
64404;BME280;50726;54.912;-8.392;2022-12-29T08:56:59;97854.25;;;19.95;67.24
64404;BME280;50726;54.912;-8.392;2022-12-29T08:59:24;97854.28;;;20.11;65.88
64404;BME280;50726;54.912;-8.392;2022-12-29T09:01:50;97854.81;;;20.15;65.37
64404;BME280;50726;54.912;-8.392;2022-12-29T09:04:16;97891.56;;;18.71;68.96
64404;BME280;50726;54.912;-8.392;2022-12-29T09:06:46;97879.50;;;20.74;67.04
64404;BME280;50726;54.912;-8.392;2022-12-29T09:09:12;97912.91;;;24.12;59.21
64404;BME280;50726;54.912;-8.392;2022-12-29T09:11:38;97915.28;;;20.03;67.51
64404;BME280;50726;54.912;-8.392;2022-12-29T09:19:13;97916.94;;;22.17;63.85
64404;BME280;50726;54.912;-8.392;2022-12-29T09:21:39;97940.25;;;21.83;63.79
64404;BME280;50726;54.912;-8.392;2022-12-29T09:24:05;97945.75;;;21.65;63.12
64404;BME280;50726;54.912;-8.392;2022-12-29T09:26:31;97937.50;;;21.60;60.34
64404;BME280;50726;54.912;-8.392;2022-12-29T09:28:56;97948.94;;;20.96;58.89
64404;BME280;50726;54.912;-8.392;2022-12-29T09:31:22;97952.59;;;21.76;59.13
64404;BME280;50726;54.912;-8.392;2022-12-29T09:33:53;97940.06;;;21.28;58.67
64404;BME280;50726;54.912;-8.392;2022-12-29T09:36:19;97978.47;;;20.84;58.37
64404;BME280;50726;54.912;-8.392;2022-12-29T09:59:24;98046.47;;;21.93;59.00
64404;BME280;50726;54.912;-8.392;2022-12-29T10:02:10;97998.84;;;22.70;59.66
64404;BME280;50726;54.912;-8.392;2022-12-29T10:04:41;98045.50;;;22.26;60.15
64404;BME280;50726;54.912;-8.392;2022-12-29T10:10:04;98046.63;;;23.57;60.41
64404;BME280;50726;54.912;-8.392;2022-12-29T10:20:52;98108.56;;;22.34;60.83
64404;BME280;50726;54.912;-8.392;2022-12-29T10:25:58;98124.72;;;22.24;56.31
64404;BME280;50726;54.912;-8.392;2022-12-29T10:30:57;98115.56;;;22.26;57.42
64404;BME280;50726;54.912;-8.392;2022-12-29T10:33:34;98161.63;;;22.84;56.87
64404;BME280;50726;54.912;-8.392;2022-12-29T10:36:24;98165.66;;;24.50;54.53
64404;BME280;50726;54.912;-8.392;2022-12-29T10:39:02;98207.31;;;23.12;57.12
64404;BME280;50726;54.912;-8.392;2022-12-29T10:41:55;98223.22;;;22.97;56.75
64404;BME280;50726;54.912;-8.392;2022-12-29T10:44:28;98267.22;;;23.25;56.95
64404;BME280;50726;54.912;-8.392;2022-12-29T10:47:03;98240.31;;;23.90;55.29
64404;BME280;50726;54.912;-8.392;2022-12-29T10:49:32;98244.63;;;23.12;56.25
64404;BME280;50726;54.912;-8.392;2022-12-29T10:52:02;98253.34;;;22.98;57.09
64404;BME280;50726;54.912;-8.392;2022-12-29T10:54:31;98259.25;;;22.85;56.30
64404;BME280;50726;54.912;-8.392;2022-12-29T10:57:09;98272.59;;;23.80;54.18
64404;BME280;50726;54.912;-8.392;2022-12-29T10:59:37;98344.69;;;22.33;55.87
64404;BME280;50726;54.912;-8.392;2022-12-29T11:07:20;98294.47;;;22.13;57.74
64404;BME280;50726;54.912;-8.392;2022-12-29T11:09:46;98300.78;;;22.37;58.32
64404;BME280;50726;54.912;-8.392;2022-12-29T11:12:28;98327.53;;;22.77;59.24
64404;BME280;50726;54.912;-8.392;2022-12-29T11:17:28;98322.47;;;24.03;56.39
64404;BME280;50726;54.912;-8.392;2022-12-29T11:20:26;98323.00;;;22.95;57.63
64404;BME280;50726;54.912;-8.392;2022-12-29T11:22:55;98322.84;;;22.88;58.89
64404;BME280;50726;54.912;-8.392;2022-12-29T11:25:21;98338.13;;;23.11;58.60
64404;BME280;50726;54.912;-8.392;2022-12-29T11:28:03;98335.88;;;22.24;59.47
64404;BME280;50726;54.912;-8.392;2022-12-29T11:30:37;98352.19;;;22.30;55.89
64404;BME280;50726;54.912;-8.392;2022-12-29T11:33:04;98330.56;;;21.40;57.49
64404;BME280;50726;54.912;-8.392;2022-12-29T11:35:39;98354.75;;;23.21;56.57
64404;BME280;50726;54.912;-8.392;2022-12-29T11:38:11;98361.88;;;22.56;57.75
64404;BME280;50726;54.912;-8.392;2022-12-29T11:40:43;98376.34;;;21.60;58.21
64404;BME280;50726;54.912;-8.392;2022-12-29T11:43:23;98381.06;;;23.24;56.62
64404;BME280;50726;54.912;-8.392;2022-12-29T11:45:52;98378.44;;;23.16;56.69
64404;BME280;50726;54.912;-8.392;2022-12-29T11:48:20;98397.81;;;22.43;58.41
64404;BME280;50726;54.912;-8.392;2022-12-29T11:50:50;98405.69;;;23.43;56.06
64404;BME280;50726;54.912;-8.392;2022-12-29T11:58:33;98430.28;;;23.05;58.63
64404;BME280;50726;54.912;-8.392;2022-12-29T12:01:17;98455.09;;;23.14;59.23
64404;BME280;50726;54.912;-8.392;2022-12-29T12:04:18;98449.91;;;23.20;58.98
64404;BME280;50726;54.912;-8.392;2022-12-29T12:07:09;98452.41;;;23.39;59.30
64404;BME280;50726;54.912;-8.392;2022-12-29T12:09:50;98478.91;;;23.32;58.59
64404;BME280;50726;54.912;-8.392;2022-12-29T12:12:33;98440.16;;;21.95;61.18
64404;BME280;50726;54.912;-8.392;2022-12-29T12:15:02;98468.28;;;22.65;60.70
64404;BME280;50726;54.912;-8.392;2022-12-29T12:17:54;98498.28;;;22.24;61.38
64404;BME280;50726;54.912;-8.392;2022-12-29T12:25:56;98494.09;;;22.90;60.35
64404;BME280;50726;54.912;-8.392;2022-12-29T12:45:48;98536.34;;;23.76;55.33
64404;BME280;50726;54.912;-8.392;2022-12-29T12:51:14;98542.25;;;23.46;56.33
64404;BME280;50726;54.912;-8.392;2022-12-29T12:57:40;98550.09;;;24.45;54.24
64404;BME280;50726;54.912;-8.392;2022-12-29T13:00:18;98543.44;;;24.00;52.84
64404;BME280;50726;54.912;-8.392;2022-12-29T13:03:13;98596.59;;;23.54;50.48
64404;BME280;50726;54.912;-8.392;2022-12-29T13:11:21;98596.31;;;22.56;56.44
64404;BME280;50726;54.912;-8.392;2022-12-29T13:26:46;98622.09;;;23.40;52.54
64404;BME280;50726;54.912;-8.392;2022-12-29T13:29:33;98653.06;;;23.24;52.89
64404;BME280;50726;54.912;-8.392;2022-12-29T13:34:56;98661.63;;;24.43;50.96
64404;BME280;50726;54.912;-8.392;2022-12-29T13:37:27;98658.44;;;23.66;51.54
64404;BME280;50726;54.912;-8.392;2022-12-29T14:31:50;98664.22;;;26.08;43.50
64404;BME280;50726;54.912;-8.392;2022-12-29T14:36:58;98667.16;;;28.33;40.97
64404;BME280;50726;54.912;-8.392;2022-12-29T14:39:40;98659.22;;;29.29;39.42
64404;BME280;50726;54.912;-8.392;2022-12-29T14:45:02;98682.34;;;27.61;40.52
64404;BME280;50726;54.912;-8.392;2022-12-29T14:47:35;98680.28;;;27.42;42.40
64404;BME280;50726;54.912;-8.392;2022-12-29T15:40:33;98720.78;;;24.31;37.76
64404;BME280;50726;54.912;-8.392;2022-12-29T15:43:21;98724.22;;;25.05;37.08
64404;BME280;50726;54.912;-8.392;2022-12-29T15:45:50;98705.06;;;26.10;36.32
64404;BME280;50726;54.912;-8.392;2022-12-29T15:48:19;98709.69;;;25.31;36.96
64404;BME280;50726;54.912;-8.392;2022-12-29T16:21:41;98723.50;;;25.66;36.71
64404;BME280;50726;54.912;-8.392;2022-12-29T16:24:19;98720.16;;;26.26;36.36
64404;BME280;50726;54.912;-8.392;2022-12-29T16:27:01;98717.25;;;27.03;35.01
64404;BME280;50726;54.912;-8.392;2022-12-29T16:29:29;98710.78;;;25.13;36.84
64404;BME280;50726;54.912;-8.392;2022-12-29T16:31:58;98714.53;;;26.36;36.37
64404;BME280;50726;54.912;-8.392;2022-12-29T16:34:41;98726.44;;;26.33;36.56
64404;BME280;50726;54.912;-8.392;2022-12-29T16:37:34;98752.44;;;26.93;35.65
64404;BME280;50726;54.912;-8.392;2022-12-29T16:55:31;98739.03;;;25.71;36.04
64404;BME280;50726;54.912;-8.392;2022-12-29T16:57:58;98748.56;;;26.12;35.47
64404;BME280;50726;54.912;-8.392;2022-12-29T17:00:30;98733.38;;;26.58;35.45
64404;BME280;50726;54.912;-8.392;2022-12-29T17:03:00;98721.78;;;24.30;39.81
64404;BME280;50726;54.912;-8.392;2022-12-29T17:05:27;98727.81;;;26.29;35.67
64404;BME280;50726;54.912;-8.392;2022-12-29T17:07:53;98724.88;;;26.39;35.91
64404;BME280;50726;54.912;-8.392;2022-12-29T18:29:19;98679.56;;;25.60;44.76
64404;BME280;50726;54.912;-8.392;2022-12-29T18:31:45;98668.13;;;23.33;48.34
64404;BME280;50726;54.912;-8.392;2022-12-29T18:34:14;98673.34;;;24.42;47.85
64404;BME280;50726;54.912;-8.392;2022-12-29T18:36:44;98668.31;;;22.72;50.88
64404;BME280;50726;54.912;-8.392;2022-12-29T18:39:15;98646.41;;;23.20;51.20
64404;BME280;50726;54.912;-8.392;2022-12-29T18:41:40;98636.66;;;24.27;48.30
64404;BME280;50726;54.912;-8.392;2022-12-29T18:46:35;98624.22;;;22.95;50.31
64404;BME280;50726;54.912;-8.392;2022-12-29T18:49:01;98650.88;;;24.59;47.41
64404;BME280;50726;54.912;-8.392;2022-12-29T18:51:27;98633.94;;;25.30;46.62
64404;BME280;50726;54.912;-8.392;2022-12-29T18:53:56;98636.31;;;25.02;46.74
64404;BME280;50726;54.912;-8.392;2022-12-29T18:56:22;98648.72;;;24.94;47.57
64404;BME280;50726;54.912;-8.392;2022-12-29T18:58:52;98635.72;;;25.38;46.66
64404;BME280;50726;54.912;-8.392;2022-12-29T19:01:24;98624.88;;;26.53;44.27
64404;BME280;50726;54.912;-8.392;2022-12-29T19:03:49;98627.44;;;26.01;44.77
64404;BME280;50726;54.912;-8.392;2022-12-29T19:06:15;98611.34;;;24.86;46.35
64404;BME280;50726;54.912;-8.392;2022-12-29T19:08:41;98600.19;;;25.29;44.57
64404;BME280;50726;54.912;-8.392;2022-12-29T19:11:09;98588.44;;;25.54;45.49
64404;BME280;50726;54.912;-8.392;2022-12-29T19:13:35;98579.47;;;24.13;46.17
64404;BME280;50726;54.912;-8.392;2022-12-29T19:16:01;98578.03;;;25.20;46.33
64404;BME280;50726;54.912;-8.392;2022-12-29T19:18:27;98580.22;;;25.32;44.88
64404;BME280;50726;54.912;-8.392;2022-12-29T19:20:54;98586.91;;;26.05;44.57
64404;BME280;50726;54.912;-8.392;2022-12-29T19:23:24;98588.69;;;25.97;44.96
64404;BME280;50726;54.912;-8.392;2022-12-29T19:25:53;98586.88;;;27.08;43.54
64404;BME280;50726;54.912;-8.392;2022-12-29T19:28:24;98563.63;;;25.22;44.18
64404;BME280;50726;54.912;-8.392;2022-12-29T19:30:52;98589.72;;;25.19;45.96
64404;BME280;50726;54.912;-8.392;2022-12-29T19:33:21;98549.22;;;24.21;47.27
64404;BME280;50726;54.912;-8.392;2022-12-29T19:35:49;98550.13;;;24.36;46.62
64404;BME280;50726;54.912;-8.392;2022-12-29T19:38:15;98560.50;;;27.12;42.35
64404;BME280;50726;54.912;-8.392;2022-12-29T19:40:49;98541.72;;;26.17;43.77
64404;BME280;50726;54.912;-8.392;2022-12-29T19:43:16;98540.16;;;26.22;43.25
64404;BME280;50726;54.912;-8.392;2022-12-29T19:45:45;98537.13;;;25.65;43.82
64404;BME280;50726;54.912;-8.392;2022-12-29T19:48:16;98529.84;;;25.74;43.49
64404;BME280;50726;54.912;-8.392;2022-12-29T19:50:43;98527.72;;;24.46;45.64
64404;BME280;50726;54.912;-8.392;2022-12-29T19:53:09;98526.94;;;25.45;45.05
64404;BME280;50726;54.912;-8.392;2022-12-29T19:55:35;98510.25;;;24.58;45.37
64404;BME280;50726;54.912;-8.392;2022-12-29T19:58:00;98511.72;;;25.46;44.40
64404;BME280;50726;54.912;-8.392;2022-12-29T20:00:26;98521.09;;;24.88;45.47
64404;BME280;50726;54.912;-8.392;2022-12-29T20:02:52;98505.13;;;25.72;43.86
64404;BME280;50726;54.912;-8.392;2022-12-29T20:05:18;98494.47;;;26.46;43.62
64404;BME280;50726;54.912;-8.392;2022-12-29T20:07:44;98482.47;;;24.44;44.65
64404;BME280;50726;54.912;-8.392;2022-12-29T20:10:10;98486.53;;;26.00;43.32
64404;BME280;50726;54.912;-8.392;2022-12-29T20:12:39;98477.28;;;24.19;45.11
64404;BME280;50726;54.912;-8.392;2022-12-29T20:15:06;98463.16;;;25.04;45.42
64404;BME280;50726;54.912;-8.392;2022-12-29T20:17:33;98468.69;;;24.32;46.95